sensor_id;sensor_type;location;lat;lon;timestamp;P1;durP1;ratioP1;P2;durP2;ratioP2
36001;SDS011;22070;50.922;5.430;2022-07-23T00:00:05;16.60;;;9.20;;
36001;SDS011;22070;50.922;5.430;2022-07-23T00:02:31;14.30;;;8.52;;
36001;SDS011;22070;50.922;5.430;2022-07-23T00:04:57;18.73;;;8.77;;
36001;SDS011;22070;50.922;5.430;2022-07-23T00:07:22;21.33;;;9.67;;
36001;SDS011;22070;50.922;5.430;2022-07-23T00:09:48;15.35;;;8.65;;
36001;SDS011;22070;50.922;5.430;2022-07-23T00:12:13;18.23;;;9.50;;
36001;SDS011;22070;50.922;5.430;2022-07-23T00:14:39;12.97;;;8.57;;
36001;SDS011;22070;50.922;5.430;2022-07-23T00:17:05;17.57;;;9.70;;
36001;SDS011;22070;50.922;5.430;2022-07-23T00:19:30;11.47;;;8.37;;
36001;SDS011;22070;50.922;5.430;2022-07-23T00:21:56;12.35;;;8.52;;
36001;SDS011;22070;50.922;5.430;2022-07-23T00:24:21;17.20;;;9.53;;
36001;SDS011;22070;50.922;5.430;2022-07-23T00:26:47;12.73;;;8.10;;
36001;SDS011;22070;50.922;5.430;2022-07-23T00:29:13;13.48;;;8.50;;
36001;SDS011;22070;50.922;5.430;2022-07-23T00:31:38;10.60;;;7.57;;
36001;SDS011;22070;50.922;5.430;2022-07-23T00:34:04;14.70;;;8.10;;
36001;SDS011;22070;50.922;5.430;2022-07-23T00:36:30;17.87;;;8.90;;
36001;SDS011;22070;50.922;5.430;2022-07-23T00:38:56;14.32;;;8.80;;
36001;SDS011;22070;50.922;5.430;2022-07-23T00:41:22;13.38;;;8.45;;
36001;SDS011;22070;50.922;5.430;2022-07-23T00:43:48;13.60;;;8.53;;
36001;SDS011;22070;50.922;5.430;2022-07-23T00:46:18;11.93;;;8.33;;
36001;SDS011;22070;50.922;5.430;2022-07-23T00:48:48;16.52;;;8.25;;
36001;SDS011;22070;50.922;5.430;2022-07-23T00:51:17;12.10;;;8.90;;
36001;SDS011;22070;50.922;5.430;2022-07-23T00:53:43;11.73;;;8.23;;
36001;SDS011;22070;50.922;5.430;2022-07-23T00:56:09;13.40;;;8.35;;
36001;SDS011;22070;50.922;5.430;2022-07-23T00:58:35;16.15;;;8.57;;
36001;SDS011;22070;50.922;5.430;2022-07-23T01:01:02;12.50;;;8.65;;
36001;SDS011;22070;50.922;5.430;2022-07-23T01:03:28;18.60;;;9.43;;
36001;SDS011;22070;50.922;5.430;2022-07-23T01:05:54;14.95;;;8.75;;
36001;SDS011;22070;50.922;5.430;2022-07-23T01:08:19;15.82;;;9.27;;
36001;SDS011;22070;50.922;5.430;2022-07-23T01:10:46;16.37;;;9.47;;
36001;SDS011;22070;50.922;5.430;2022-07-23T01:13:13;13.80;;;9.40;;
36001;SDS011;22070;50.922;5.430;2022-07-23T01:15:39;16.45;;;9.52;;
36001;SDS011;22070;50.922;5.430;2022-07-23T01:18:05;16.55;;;9.27;;
36001;SDS011;22070;50.922;5.430;2022-07-23T01:20:32;16.27;;;10.00;;
36001;SDS011;22070;50.922;5.430;2022-07-23T01:22:58;18.23;;;11.13;;
36001;SDS011;22070;50.922;5.430;2022-07-23T01:25:25;18.13;;;10.93;;
36001;SDS011;22070;50.922;5.430;2022-07-23T01:27:53;22.17;;;11.25;;
36001;SDS011;22070;50.922;5.430;2022-07-23T01:30:19;19.20;;;10.50;;
36001;SDS011;22070;50.922;5.430;2022-07-23T01:32:45;21.73;;;10.63;;
36001;SDS011;22070;50.922;5.430;2022-07-23T01:35:11;18.17;;;10.57;;
36001;SDS011;22070;50.922;5.430;2022-07-23T01:37:37;20.87;;;9.93;;
36001;SDS011;22070;50.922;5.430;2022-07-23T01:40:03;18.60;;;10.95;;
36001;SDS011;22070;50.922;5.430;2022-07-23T01:42:30;22.27;;;12.27;;
36001;SDS011;22070;50.922;5.430;2022-07-23T01:44:56;26.20;;;12.60;;
36001;SDS011;22070;50.922;5.430;2022-07-23T01:47:21;21.77;;;11.83;;
36001;SDS011;22070;50.922;5.430;2022-07-23T01:49:47;17.37;;;11.67;;
36001;SDS011;22070;50.922;5.430;2022-07-23T01:52:13;17.17;;;10.90;;
36001;SDS011;22070;50.922;5.430;2022-07-23T01:54:39;25.27;;;12.50;;
36001;SDS011;22070;50.922;5.430;2022-07-23T01:57:05;20.48;;;12.35;;
36001;SDS011;22070;50.922;5.430;2022-07-23T01:59:32;20.58;;;12.02;;
36001;SDS011;22070;50.922;5.430;2022-07-23T02:01:57;21.77;;;10.77;;
36001;SDS011;22070;50.922;5.430;2022-07-23T02:04:23;19.17;;;11.10;;
36001;SDS011;22070;50.922;5.430;2022-07-23T02:06:49;19.60;;;12.05;;
36001;SDS011;22070;50.922;5.430;2022-07-23T02:09:16;18.95;;;11.48;;
36001;SDS011;22070;50.922;5.430;2022-07-23T02:11:42;26.67;;;12.25;;
36001;SDS011;22070;50.922;5.430;2022-07-23T02:14:08;20.60;;;11.45;;
36001;SDS011;22070;50.922;5.430;2022-07-23T02:16:34;17.48;;;11.63;;
36001;SDS011;22070;50.922;5.430;2022-07-23T02:19:00;22.50;;;12.00;;
36001;SDS011;22070;50.922;5.430;2022-07-23T02:21:25;21.63;;;11.63;;
36001;SDS011;22070;50.922;5.430;2022-07-23T02:23:51;20.05;;;12.10;;
36001;SDS011;22070;50.922;5.430;2022-07-23T02:26:17;19.95;;;11.20;;
36001;SDS011;22070;50.922;5.430;2022-07-23T02:28:42;25.27;;;11.63;;
36001;SDS011;22070;50.922;5.430;2022-07-23T02:31:08;21.08;;;11.82;;
36001;SDS011;22070;50.922;5.430;2022-07-23T02:33:33;20.23;;;11.37;;
36001;SDS011;22070;50.922;5.430;2022-07-23T02:36:00;17.43;;;11.13;;
36001;SDS011;22070;50.922;5.430;2022-07-23T02:38:25;21.73;;;11.20;;
36001;SDS011;22070;50.922;5.430;2022-07-23T02:40:51;21.77;;;10.83;;
36001;SDS011;22070;50.922;5.430;2022-07-23T02:43:17;22.57;;;11.57;;
36001;SDS011;22070;50.922;5.430;2022-07-23T02:45:42;23.77;;;11.07;;
36001;SDS011;22070;50.922;5.430;2022-07-23T02:48:08;22.27;;;11.73;;
36001;SDS011;22070;50.922;5.430;2022-07-23T02:50:33;20.38;;;12.43;;
36001;SDS011;22070;50.922;5.430;2022-07-23T02:52:59;26.73;;;10.83;;
36001;SDS011;22070;50.922;5.430;2022-07-23T02:55:26;15.60;;;10.23;;
36001;SDS011;22070;50.922;5.430;2022-07-23T02:57:52;18.17;;;10.60;;
36001;SDS011;22070;50.922;5.430;2022-07-23T03:00:17;14.73;;;9.97;;
36001;SDS011;22070;50.922;5.430;2022-07-23T03:02:43;24.45;;;11.57;;
36001;SDS011;22070;50.922;5.430;2022-07-23T03:05:09;15.67;;;9.30;;
36001;SDS011;22070;50.922;5.430;2022-07-23T03:07:34;20.08;;;11.45;;
36001;SDS011;22070;50.922;5.430;2022-07-23T03:10:00;16.90;;;10.38;;
36001;SDS011;22070;50.922;5.430;2022-07-23T03:12:26;11.68;;;7.18;;
36001;SDS011;22070;50.922;5.430;2022-07-23T03:14:52;16.15;;;10.73;;
36001;SDS011;22070;50.922;5.430;2022-07-23T03:17:17;18.88;;;10.15;;
36001;SDS011;22070;50.922;5.430;2022-07-23T03:19:43;14.30;;;9.80;;
36001;SDS011;22070;50.922;5.430;2022-07-23T03:22:09;16.85;;;10.32;;
36001;SDS011;22070;50.922;5.430;2022-07-23T03:24:34;14.57;;;9.43;;
36001;SDS011;22070;50.922;5.430;2022-07-23T03:27:19;14.75;;;9.05;;
36001;SDS011;22070;50.922;5.430;2022-07-23T03:29:49;18.40;;;9.55;;
36001;SDS011;22070;50.922;5.430;2022-07-23T03:32:16;19.55;;;11.38;;
36001;SDS011;22070;50.922;5.430;2022-07-23T03:34:41;17.58;;;10.63;;
36001;SDS011;22070;50.922;5.430;2022-07-23T03:37:07;19.67;;;10.20;;
36001;SDS011;22070;50.922;5.430;2022-07-23T03:39:32;21.70;;;11.10;;
36001;SDS011;22070;50.922;5.430;2022-07-23T03:41:58;15.10;;;10.00;;
36001;SDS011;22070;50.922;5.430;2022-07-23T03:44:24;15.10;;;9.47;;
36001;SDS011;22070;50.922;5.430;2022-07-23T03:46:50;13.35;;;9.32;;
36001;SDS011;22070;50.922;5.430;2022-07-23T03:49:15;16.70;;;9.50;;
36001;SDS011;22070;50.922;5.430;2022-07-23T03:51:41;14.47;;;9.27;;
36001;SDS011;22070;50.922;5.430;2022-07-23T03:54:07;11.45;;;7.75;;
36001;SDS011;22070;50.922;5.430;2022-07-23T03:56:32;14.75;;;8.98;;
36001;SDS011;22070;50.922;5.430;2022-07-23T03:58:58;16.40;;;8.53;;
36001;SDS011;22070;50.922;5.430;2022-07-23T04:01:24;15.27;;;8.50;;
36001;SDS011;22070;50.922;5.430;2022-07-23T04:03:49;19.47;;;8.53;;
36001;SDS011;22070;50.922;5.430;2022-07-23T04:06:15;14.27;;;9.52;;
36001;SDS011;22070;50.922;5.430;2022-07-23T04:08:40;12.43;;;8.63;;
36001;SDS011;22070;50.922;5.430;2022-07-23T04:11:06;15.15;;;8.52;;
36001;SDS011;22070;50.922;5.430;2022-07-23T04:13:32;21.52;;;9.40;;
36001;SDS011;22070;50.922;5.430;2022-07-23T04:15:57;14.63;;;8.30;;
36001;SDS011;22070;50.922;5.430;2022-07-23T04:18:23;16.50;;;9.77;;
36001;SDS011;22070;50.922;5.430;2022-07-23T04:20:52;16.15;;;9.40;;
36001;SDS011;22070;50.922;5.430;2022-07-23T04:23:18;20.10;;;9.35;;
36001;SDS011;22070;50.922;5.430;2022-07-23T04:25:44;15.85;;;8.45;;
36001;SDS011;22070;50.922;5.430;2022-07-23T04:28:09;14.85;;;8.23;;
36001;SDS011;22070;50.922;5.430;2022-07-23T04:30:35;13.82;;;8.15;;
36001;SDS011;22070;50.922;5.430;2022-07-23T04:33:00;10.68;;;7.95;;
36001;SDS011;22070;50.922;5.430;2022-07-23T04:35:26;15.90;;;9.27;;
36001;SDS011;22070;50.922;5.430;2022-07-23T04:37:52;17.20;;;8.95;;
36001;SDS011;22070;50.922;5.430;2022-07-23T04:40:18;12.20;;;8.70;;
36001;SDS011;22070;50.922;5.430;2022-07-23T04:42:43;17.73;;;9.27;;
36001;SDS011;22070;50.922;5.430;2022-07-23T04:45:09;15.53;;;9.47;;
36001;SDS011;22070;50.922;5.430;2022-07-23T04:47:35;18.27;;;9.35;;
36001;SDS011;22070;50.922;5.430;2022-07-23T04:50:00;17.48;;;9.68;;
36001;SDS011;22070;50.922;5.430;2022-07-23T04:52:26;17.20;;;10.00;;
36001;SDS011;22070;50.922;5.430;2022-07-23T04:54:52;15.63;;;10.13;;
36001;SDS011;22070;50.922;5.430;2022-07-23T04:57:17;21.83;;;10.70;;
36001;SDS011;22070;50.922;5.430;2022-07-23T04:59:43;16.23;;;9.50;;
36001;SDS011;22070;50.922;5.430;2022-07-23T05:02:08;18.37;;;10.53;;
36001;SDS011;22070;50.922;5.430;2022-07-23T05:04:34;16.38;;;9.52;;
36001;SDS011;22070;50.922;5.430;2022-07-23T05:07:00;15.57;;;10.07;;
36001;SDS011;22070;50.922;5.430;2022-07-23T05:09:26;16.13;;;10.17;;
36001;SDS011;22070;50.922;5.430;2022-07-23T05:11:51;15.38;;;10.57;;
36001;SDS011;22070;50.922;5.430;2022-07-23T05:14:17;14.73;;;10.20;;
36001;SDS011;22070;50.922;5.430;2022-07-23T05:16:42;16.27;;;10.30;;
36001;SDS011;22070;50.922;5.430;2022-07-23T05:19:08;18.92;;;10.98;;
36001;SDS011;22070;50.922;5.430;2022-07-23T05:21:34;16.02;;;10.25;;
36001;SDS011;22070;50.922;5.430;2022-07-23T05:24:00;14.68;;;9.88;;
36001;SDS011;22070;50.922;5.430;2022-07-23T05:26:25;13.77;;;9.63;;
36001;SDS011;22070;50.922;5.430;2022-07-23T05:28:51;10.60;;;7.30;;
36001;SDS011;22070;50.922;5.430;2022-07-23T05:31:17;17.00;;;10.53;;
36001;SDS011;22070;50.922;5.430;2022-07-23T05:33:43;16.48;;;11.77;;
36001;SDS011;22070;50.922;5.430;2022-07-23T05:36:09;20.27;;;13.07;;
36001;SDS011;22070;50.922;5.430;2022-07-23T05:38:34;25.75;;;12.55;;
36001;SDS011;22070;50.922;5.430;2022-07-23T05:41:00;21.02;;;13.25;;
36001;SDS011;22070;50.922;5.430;2022-07-23T05:43:26;18.90;;;12.27;;
36001;SDS011;22070;50.922;5.430;2022-07-23T05:45:52;19.58;;;12.18;;
36001;SDS011;22070;50.922;5.430;2022-07-23T05:48:18;16.58;;;11.93;;
36001;SDS011;22070;50.922;5.430;2022-07-23T05:50:44;18.57;;;12.73;;
36001;SDS011;22070;50.922;5.430;2022-07-23T05:53:09;20.20;;;11.37;;
36001;SDS011;22070;50.922;5.430;2022-07-23T05:55:35;16.73;;;10.80;;
36001;SDS011;22070;50.922;5.430;2022-07-23T05:58:01;18.40;;;11.13;;
36001;SDS011;22070;50.922;5.430;2022-07-23T06:00:26;15.18;;;10.60;;
36001;SDS011;22070;50.922;5.430;2022-07-23T06:02:53;15.60;;;10.45;;
36001;SDS011;22070;50.922;5.430;2022-07-23T06:05:19;19.25;;;11.73;;
36001;SDS011;22070;50.922;5.430;2022-07-23T06:07:45;15.85;;;10.75;;
36001;SDS011;22070;50.922;5.430;2022-07-23T06:10:11;16.70;;;10.65;;
36001;SDS011;22070;50.922;5.430;2022-07-23T06:12:37;15.77;;;10.15;;
36001;SDS011;22070;50.922;5.430;2022-07-23T06:15:03;17.10;;;10.47;;
36001;SDS011;22070;50.922;5.430;2022-07-23T06:17:29;16.80;;;10.93;;
36001;SDS011;22070;50.922;5.430;2022-07-23T06:19:55;16.53;;;11.47;;
36001;SDS011;22070;50.922;5.430;2022-07-23T06:22:21;14.77;;;10.93;;
36001;SDS011;22070;50.922;5.430;2022-07-23T06:24:47;14.77;;;10.77;;
36001;SDS011;22070;50.922;5.430;2022-07-23T06:27:13;16.75;;;11.25;;
36001;SDS011;22070;50.922;5.430;2022-07-23T06:29:38;15.10;;;10.90;;
36001;SDS011;22070;50.922;5.430;2022-07-23T06:32:05;15.50;;;10.80;;
36001;SDS011;22070;50.922;5.430;2022-07-23T06:34:31;14.40;;;8.27;;
36001;SDS011;22070;50.922;5.430;2022-07-23T06:36:58;17.38;;;10.55;;
36001;SDS011;22070;50.922;5.430;2022-07-23T06:39:24;12.87;;;8.57;;
36001;SDS011;22070;50.922;5.430;2022-07-23T06:41:50;15.50;;;11.30;;
36001;SDS011;22070;50.922;5.430;2022-07-23T06:44:15;17.38;;;11.07;;
36001;SDS011;22070;50.922;5.430;2022-07-23T06:46:41;19.97;;;11.73;;
36001;SDS011;22070;50.922;5.430;2022-07-23T06:49:07;15.83;;;11.73;;
36001;SDS011;22070;50.922;5.430;2022-07-23T06:51:32;17.57;;;11.10;;
36001;SDS011;22070;50.922;5.430;2022-07-23T06:53:58;17.87;;;11.00;;
36001;SDS011;22070;50.922;5.430;2022-07-23T06:56:24;18.87;;;11.13;;
36001;SDS011;22070;50.922;5.430;2022-07-23T06:58:50;20.60;;;11.07;;
36001;SDS011;22070;50.922;5.430;2022-07-23T07:01:15;15.67;;;10.37;;
36001;SDS011;22070;50.922;5.430;2022-07-23T07:03:41;17.67;;;10.57;;
36001;SDS011;22070;50.922;5.430;2022-07-23T07:06:07;14.73;;;10.80;;
36001;SDS011;22070;50.922;5.430;2022-07-23T07:08:32;17.60;;;10.87;;
36001;SDS011;22070;50.922;5.430;2022-07-23T07:10:58;15.17;;;8.30;;
36001;SDS011;22070;50.922;5.430;2022-07-23T07:13:24;20.23;;;11.00;;
36001;SDS011;22070;50.922;5.430;2022-07-23T07:15:49;15.10;;;11.47;;
36001;SDS011;22070;50.922;5.430;2022-07-23T07:18:15;17.03;;;9.97;;
36001;SDS011;22070;50.922;5.430;2022-07-23T07:20:40;16.90;;;10.63;;
36001;SDS011;22070;50.922;5.430;2022-07-23T07:23:06;17.67;;;11.23;;
36001;SDS011;22070;50.922;5.430;2022-07-23T07:25:32;17.80;;;11.60;;
36001;SDS011;22070;50.922;5.430;2022-07-23T07:27:57;17.97;;;10.80;;
36001;SDS011;22070;50.922;5.430;2022-07-23T07:30:24;15.63;;;10.70;;
36001;SDS011;22070;50.922;5.430;2022-07-23T07:32:49;17.25;;;10.63;;
36001;SDS011;22070;50.922;5.430;2022-07-23T07:35:15;20.47;;;11.07;;
36001;SDS011;22070;50.922;5.430;2022-07-23T07:37:40;20.80;;;10.07;;
36001;SDS011;22070;50.922;5.430;2022-07-23T07:40:06;20.40;;;10.70;;
36001;SDS011;22070;50.922;5.430;2022-07-23T07:42:32;16.25;;;10.02;;
36001;SDS011;22070;50.922;5.430;2022-07-23T07:44:58;16.70;;;9.93;;
36001;SDS011;22070;50.922;5.430;2022-07-23T07:47:24;15.00;;;9.57;;
36001;SDS011;22070;50.922;5.430;2022-07-23T07:49:50;15.53;;;9.67;;
36001;SDS011;22070;50.922;5.430;2022-07-23T07:52:15;12.87;;;7.80;;
36001;SDS011;22070;50.922;5.430;2022-07-23T07:54:41;14.23;;;7.53;;
36001;SDS011;22070;50.922;5.430;2022-07-23T07:57:07;14.20;;;7.80;;
36001;SDS011;22070;50.922;5.430;2022-07-23T07:59:33;15.10;;;7.83;;
36001;SDS011;22070;50.922;5.430;2022-07-23T08:01:59;14.80;;;7.53;;
36001;SDS011;22070;50.922;5.430;2022-07-23T08:04:24;11.33;;;6.47;;
36001;SDS011;22070;50.922;5.430;2022-07-23T08:06:50;12.10;;;7.37;;
36001;SDS011;22070;50.922;5.430;2022-07-23T08:09:15;14.20;;;7.43;;
36001;SDS011;22070;50.922;5.430;2022-07-23T08:11:41;8.93;;;6.70;;
36001;SDS011;22070;50.922;5.430;2022-07-23T08:14:07;11.03;;;5.87;;
36001;SDS011;22070;50.922;5.430;2022-07-23T08:16:32;12.03;;;6.43;;
36001;SDS011;22070;50.922;5.430;2022-07-23T08:18:58;12.53;;;7.40;;
36001;SDS011;22070;50.922;5.430;2022-07-23T08:21:23;9.90;;;7.17;;
36001;SDS011;22070;50.922;5.430;2022-07-23T08:23:49;11.80;;;7.30;;
36001;SDS011;22070;50.922;5.430;2022-07-23T08:26:15;11.80;;;6.90;;
36001;SDS011;22070;50.922;5.430;2022-07-23T08:28:40;11.97;;;7.50;;
36001;SDS011;22070;50.922;5.430;2022-07-23T08:31:06;12.03;;;7.33;;
36001;SDS011;22070;50.922;5.430;2022-07-23T08:33:32;10.53;;;7.30;;
36001;SDS011;22070;50.922;5.430;2022-07-23T08:35:57;10.67;;;7.40;;
36001;SDS011;22070;50.922;5.430;2022-07-23T08:38:23;10.93;;;7.10;;
36001;SDS011;22070;50.922;5.430;2022-07-23T08:40:53;10.52;;;7.05;;
36001;SDS011;22070;50.922;5.430;2022-07-23T08:43:21;10.95;;;6.80;;
36001;SDS011;22070;50.922;5.430;2022-07-23T08:45:49;11.85;;;7.30;;
36001;SDS011;22070;50.922;5.430;2022-07-23T08:48:18;10.25;;;6.93;;
36001;SDS011;22070;50.922;5.430;2022-07-23T08:50:54;10.75;;;7.28;;
36001;SDS011;22070;50.922;5.430;2022-07-23T08:53:22;10.57;;;7.13;;
36001;SDS011;22070;50.922;5.430;2022-07-23T08:55:49;11.77;;;6.18;;
36001;SDS011;22070;50.922;5.430;2022-07-23T08:58:16;12.38;;;6.90;;
36001;SDS011;22070;50.922;5.430;2022-07-23T09:00:42;9.77;;;7.27;;
36001;SDS011;22070;50.922;5.430;2022-07-23T09:03:16;11.07;;;7.28;;
36001;SDS011;22070;50.922;5.430;2022-07-23T09:05:42;11.05;;;7.00;;
36001;SDS011;22070;50.922;5.430;2022-07-23T09:15:58;13.75;;;7.00;;
36001;SDS011;22070;50.922;5.430;2022-07-23T09:18:48;7.72;;;6.05;;
36001;SDS011;22070;50.922;5.430;2022-07-23T09:23:52;10.63;;;6.70;;
36001;SDS011;22070;50.922;5.430;2022-07-23T09:26:23;12.85;;;6.60;;
36001;SDS011;22070;50.922;5.430;2022-07-23T09:29:02;11.52;;;7.00;;
36001;SDS011;22070;50.922;5.430;2022-07-23T09:31:32;10.57;;;7.82;;
36001;SDS011;22070;50.922;5.430;2022-07-23T09:34:09;11.18;;;6.85;;
36001;SDS011;22070;50.922;5.430;2022-07-23T09:36:36;10.32;;;6.25;;
36001;SDS011;22070;50.922;5.430;2022-07-23T09:39:02;10.57;;;6.43;;
36001;SDS011;22070;50.922;5.430;2022-07-23T09:41:45;12.02;;;6.85;;
36001;SDS011;22070;50.922;5.430;2022-07-23T09:44:12;10.40;;;6.07;;
36001;SDS011;22070;50.922;5.430;2022-07-23T09:46:41;8.80;;;6.28;;
36001;SDS011;22070;50.922;5.430;2022-07-23T09:49:19;7.47;;;5.82;;
36001;SDS011;22070;50.922;5.430;2022-07-23T09:51:53;10.30;;;6.20;;
36001;SDS011;22070;50.922;5.430;2022-07-23T09:54:27;9.10;;;6.03;;
36001;SDS011;22070;50.922;5.430;2022-07-23T09:56:59;7.40;;;5.55;;
36001;SDS011;22070;50.922;5.430;2022-07-23T09:59:34;8.55;;;5.80;;
36001;SDS011;22070;50.922;5.430;2022-07-23T10:02:01;8.80;;;6.13;;
36001;SDS011;22070;50.922;5.430;2022-07-23T10:04:28;9.65;;;6.32;;
36001;SDS011;22070;50.922;5.430;2022-07-23T10:06:59;9.75;;;6.20;;
36001;SDS011;22070;50.922;5.430;2022-07-23T10:09:27;10.95;;;5.55;;
36001;SDS011;22070;50.922;5.430;2022-07-23T10:11:59;8.57;;;5.85;;
36001;SDS011;22070;50.922;5.430;2022-07-23T10:14:47;6.93;;;4.72;;
36001;SDS011;22070;50.922;5.430;2022-07-23T10:19:39;8.47;;;6.20;;
36001;SDS011;22070;50.922;5.430;2022-07-23T10:27:54;5.13;;;4.03;;
36001;SDS011;22070;50.922;5.430;2022-07-23T10:30:32;4.95;;;4.07;;
36001;SDS011;22070;50.922;5.430;2022-07-23T10:35:34;5.88;;;3.72;;
36001;SDS011;22070;50.922;5.430;2022-07-23T10:38:25;4.40;;;3.83;;
36001;SDS011;22070;50.922;5.430;2022-07-23T10:41:01;5.18;;;4.13;;
36001;SDS011;22070;50.922;5.430;2022-07-23T10:43:28;3.92;;;3.08;;
36001;SDS011;22070;50.922;5.430;2022-07-23T10:45:55;4.82;;;3.55;;
36001;SDS011;22070;50.922;5.430;2022-07-23T10:48:41;5.47;;;3.58;;
36001;SDS011;22070;50.922;5.430;2022-07-23T10:51:10;3.60;;;3.30;;
36001;SDS011;22070;50.922;5.430;2022-07-23T10:56:16;6.32;;;3.08;;
36001;SDS011;22070;50.922;5.430;2022-07-23T10:59:03;3.65;;;3.35;;
36001;SDS011;22070;50.922;5.430;2022-07-23T11:01:36;3.40;;;2.25;;
36001;SDS011;22070;50.922;5.430;2022-07-23T11:04:03;5.03;;;2.63;;
36001;SDS011;22070;50.922;5.430;2022-07-23T11:09:25;2.58;;;2.10;;
36001;SDS011;22070;50.922;5.430;2022-07-23T11:17:58;4.80;;;3.00;;
36001;SDS011;22070;50.922;5.430;2022-07-23T11:20:25;3.28;;;2.22;;
36001;SDS011;22070;50.922;5.430;2022-07-23T11:22:53;2.72;;;2.40;;
36001;SDS011;22070;50.922;5.430;2022-07-23T11:27:47;2.33;;;2.13;;
36001;SDS011;22070;50.922;5.430;2022-07-23T11:35:33;3.20;;;2.60;;
36001;SDS011;22070;50.922;5.430;2022-07-23T11:38:04;3.08;;;2.30;;
36001;SDS011;22070;50.922;5.430;2022-07-23T11:40:37;2.85;;;2.05;;
36001;SDS011;22070;50.922;5.430;2022-07-23T11:43:04;3.08;;;2.42;;
36001;SDS011;22070;50.922;5.430;2022-07-23T11:45:39;2.25;;;2.05;;
36001;SDS011;22070;50.922;5.430;2022-07-23T11:48:08;2.33;;;2.13;;
36001;SDS011;22070;50.922;5.430;2022-07-23T11:50:35;2.15;;;1.90;;
36001;SDS011;22070;50.922;5.430;2022-07-23T11:53:02;3.08;;;2.05;;
36001;SDS011;22070;50.922;5.430;2022-07-23T11:55:28;3.33;;;2.95;;
36001;SDS011;22070;50.922;5.430;2022-07-23T11:57:54;5.00;;;2.08;;
36001;SDS011;22070;50.922;5.430;2022-07-23T12:00:28;2.22;;;1.98;;
36001;SDS011;22070;50.922;5.430;2022-07-23T12:03:03;2.97;;;2.33;;
36001;SDS011;22070;50.922;5.430;2022-07-23T12:05:32;2.50;;;2.20;;
36001;SDS011;22070;50.922;5.430;2022-07-23T12:08:02;2.25;;;2.08;;
36001;SDS011;22070;50.922;5.430;2022-07-23T12:13:01;1.75;;;1.65;;
36001;SDS011;22070;50.922;5.430;2022-07-23T12:15:42;4.03;;;1.80;;
36001;SDS011;22070;50.922;5.430;2022-07-23T12:18:14;2.30;;;2.10;;
36001;SDS011;22070;50.922;5.430;2022-07-23T12:20:42;3.92;;;1.73;;
36001;SDS011;22070;50.922;5.430;2022-07-23T12:23:10;2.22;;;1.70;;
36001;SDS011;22070;50.922;5.430;2022-07-23T12:25:38;2.10;;;1.90;;
36001;SDS011;22070;50.922;5.430;2022-07-23T12:28:40;1.73;;;1.63;;
36001;SDS011;22070;50.922;5.430;2022-07-23T12:30:58;2.20;;;1.83;;
36001;SDS011;22070;50.922;5.430;2022-07-23T12:33:25;2.00;;;1.88;;
36001;SDS011;22070;50.922;5.430;2022-07-23T12:35:56;1.90;;;1.80;;
36001;SDS011;22070;50.922;5.430;2022-07-23T12:38:24;4.25;;;1.70;;
36001;SDS011;22070;50.922;5.430;2022-07-23T12:43:22;2.35;;;2.15;;
36001;SDS011;22070;50.922;5.430;2022-07-23T12:45:49;2.42;;;2.20;;
36001;SDS011;22070;50.922;5.430;2022-07-23T12:48:20;1.95;;;1.85;;
36001;SDS011;22070;50.922;5.430;2022-07-23T12:51:00;3.05;;;2.10;;
36001;SDS011;22070;50.922;5.430;2022-07-23T12:53:37;2.78;;;2.40;;
36001;SDS011;22070;50.922;5.430;2022-07-23T13:03:57;2.47;;;2.15;;
36001;SDS011;22070;50.922;5.430;2022-07-23T13:06:32;3.90;;;2.10;;
36001;SDS011;22070;50.922;5.430;2022-07-23T13:09:04;2.30;;;2.00;;
36001;SDS011;22070;50.922;5.430;2022-07-23T13:11:31;2.03;;;1.83;;
36001;SDS011;22070;50.922;5.430;2022-07-23T13:13:57;2.00;;;1.90;;
36001;SDS011;22070;50.922;5.430;2022-07-23T13:16:25;2.05;;;1.95;;
36001;SDS011;22070;50.922;5.430;2022-07-23T13:18:51;1.77;;;1.67;;
36001;SDS011;22070;50.922;5.430;2022-07-23T13:21:17;3.97;;;2.03;;
36001;SDS011;22070;50.922;5.430;2022-07-23T13:23:43;3.58;;;1.90;;
36001;SDS011;22070;50.922;5.430;2022-07-23T13:26:09;3.15;;;2.10;;
36001;SDS011;22070;50.922;5.430;2022-07-23T13:28:34;3.70;;;1.92;;
36001;SDS011;22070;50.922;5.430;2022-07-23T13:31:00;2.38;;;1.92;;
36001;SDS011;22070;50.922;5.430;2022-07-23T13:33:26;2.35;;;1.88;;
36001;SDS011;22070;50.922;5.430;2022-07-23T13:35:51;2.38;;;2.20;;
36001;SDS011;22070;50.922;5.430;2022-07-23T13:38:18;2.40;;;2.20;;
36001;SDS011;22070;50.922;5.430;2022-07-23T13:40:46;2.33;;;1.95;;
36001;SDS011;22070;50.922;5.430;2022-07-23T13:43:14;2.10;;;2.00;;
36001;SDS011;22070;50.922;5.430;2022-07-23T13:45:42;2.10;;;2.00;;
36001;SDS011;22070;50.922;5.430;2022-07-23T13:48:08;2.75;;;2.13;;
36001;SDS011;22070;50.922;5.430;2022-07-23T13:53:07;2.20;;;2.10;;
36001;SDS011;22070;50.922;5.430;2022-07-23T13:55:35;3.90;;;2.47;;
36001;SDS011;22070;50.922;5.430;2022-07-23T13:58:02;2.20;;;2.10;;
36001;SDS011;22070;50.922;5.430;2022-07-23T14:00:29;1.90;;;1.80;;
36001;SDS011;22070;50.922;5.430;2022-07-23T14:02:55;2.30;;;2.10;;
36001;SDS011;22070;50.922;5.430;2022-07-23T14:05:22;2.40;;;2.20;;
36001;SDS011;22070;50.922;5.430;2022-07-23T14:07:47;2.35;;;2.25;;
36001;SDS011;22070;50.922;5.430;2022-07-23T14:10:14;2.60;;;2.40;;
36001;SDS011;22070;50.922;5.430;2022-07-23T14:12:41;2.53;;;2.20;;
36001;SDS011;22070;50.922;5.430;2022-07-23T14:15:07;2.58;;;2.38;;
36001;SDS011;22070;50.922;5.430;2022-07-23T14:17:34;2.70;;;2.50;;
36001;SDS011;22070;50.922;5.430;2022-07-23T14:20:04;3.92;;;2.35;;
36001;SDS011;22070;50.922;5.430;2022-07-23T14:22:30;2.60;;;2.40;;
36001;SDS011;22070;50.922;5.430;2022-07-23T14:24:56;2.92;;;2.55;;
36001;SDS011;22070;50.922;5.430;2022-07-23T14:27:25;2.88;;;2.67;;
36001;SDS011;22070;50.922;5.430;2022-07-23T14:29:51;2.47;;;2.28;;
36001;SDS011;22070;50.922;5.430;2022-07-23T14:32:17;3.03;;;2.72;;
36001;SDS011;22070;50.922;5.430;2022-07-23T14:34:43;2.40;;;2.20;;
36001;SDS011;22070;50.922;5.430;2022-07-23T14:37:09;2.70;;;2.50;;
36001;SDS011;22070;50.922;5.430;2022-07-23T14:39:39;2.70;;;2.50;;
36001;SDS011;22070;50.922;5.430;2022-07-23T14:42:06;2.80;;;2.60;;
36001;SDS011;22070;50.922;5.430;2022-07-23T14:44:32;3.95;;;2.80;;
36001;SDS011;22070;50.922;5.430;2022-07-23T14:46:58;2.90;;;2.60;;
36001;SDS011;22070;50.922;5.430;2022-07-23T14:51:50;3.83;;;2.90;;
36001;SDS011;22070;50.922;5.430;2022-07-23T14:54:16;3.22;;;3.00;;
36001;SDS011;22070;50.922;5.430;2022-07-23T14:56:42;3.35;;;2.90;;
36001;SDS011;22070;50.922;5.430;2022-07-23T14:59:08;4.80;;;2.97;;
36001;SDS011;22070;50.922;5.430;2022-07-23T15:01:34;2.95;;;2.60;;
36001;SDS011;22070;50.922;5.430;2022-07-23T15:04:00;3.08;;;2.78;;
36001;SDS011;22070;50.922;5.430;2022-07-23T15:06:25;2.83;;;2.63;;
36001;SDS011;22070;50.922;5.430;2022-07-23T15:08:51;2.83;;;2.53;;
36001;SDS011;22070;50.922;5.430;2022-07-23T15:11:17;2.90;;;2.70;;
36001;SDS011;22070;50.922;5.430;2022-07-23T15:13:43;2.70;;;2.38;;
36001;SDS011;22070;50.922;5.430;2022-07-23T15:16:09;3.30;;;2.80;;
36001;SDS011;22070;50.922;5.430;2022-07-23T15:18:35;3.13;;;2.85;;
36001;SDS011;22070;50.922;5.430;2022-07-23T15:21:01;2.50;;;2.30;;
36001;SDS011;22070;50.922;5.430;2022-07-23T15:23:27;2.90;;;2.70;;
36001;SDS011;22070;50.922;5.430;2022-07-23T15:25:54;3.63;;;2.60;;
36001;SDS011;22070;50.922;5.430;2022-07-23T15:28:21;3.08;;;2.60;;
36001;SDS011;22070;50.922;5.430;2022-07-23T15:30:47;2.97;;;2.53;;
36001;SDS011;22070;50.922;5.430;2022-07-23T15:33:13;3.25;;;3.05;;